LavenderCAM.net
Leatherhead Weather
 
Leatherhead Weather
 
 





Aviation weather for

London Heathrow (EGLL) and London Gatwick (EGKK)



London Heathrow (EGLL) METAR / Surface Actual
London / Heathrow Airport, United Kingdom (EGLL) 51-29N 000-27W 0M
Feb 25, 2021 - 01:20 PM EST / 2021.02.25 1820 UTC
Wind: from the W (270 degrees) at 6 MPH (5 KT):0
Visibility: greater than 7 mile(s):0
Sky conditions: partly cloudy
Temperature: 50 F (10 C)
Dew Point: 37 F (3 C)
Relative Humidity: 61%
Pressure (altimeter): 30.42 in. Hg (1030 hPa)
ob: EGLL 251820Z AUTO 27005KT 9999 SCT046 10/03 Q1030
cycle: 18
London Heathrow (EGLL) TAF / Forecast
2021/02/25 18:06
TAF EGLL 251653Z 2518/2624 30004KT 9999 FEW040 PROB30 2604/2609 8000


London Gatwick (EGKK) METAR / Surface Actual
London / Gatwick Airport, United Kingdom (EGKK) 51-09N 000-11W 0M
Feb 25, 2021 - 01:20 PM EST / 2021.02.25 1820 UTC
Wind: from the WSW (250 degrees) at 5 MPH (4 KT):0
Visibility: greater than 7 mile(s):0
Temperature: 48 F (9 C)
Dew Point: 37 F (3 C)
Relative Humidity: 66%
Pressure (altimeter): 30.42 in. Hg (1030 hPa)
ob: EGKK 251820Z 25004KT CAVOK 09/03 Q1030
cycle: 18
London Gatwick (EGKK) TAF / Forecast
2021/02/25 18:06
TAF EGKK 251659Z 2518/2624 31006KT 9999 FEW035 PROB40 
      TEMPO 2603/2610 6000